Time;durP1;ratioP1;P1;durP2;ratioP2;P2;SDS_P1;SDS_P2;PMS_P1;PMS_P2;Temp;Humidity;BMP_temperature;BMP_pressure;BME280_temperature;BME280_humidity;BME280_pressure;Samples;Min_cycle;Max_cycle;Signal;HPM_P1;HPM_P2
2021/11/17 02:26:07;;;;;;;15.88;2.72;;;;;;;14.51;69.18;101024.97;4878756;29;20072;-93
2021/11/17 02:28:45;;;;;;;8.98;2.28;;;;;;;14.50;69.37;101033.88;4800876;29;20514;-94
2021/11/17 02:31:48;;;;;;;8.48;1.70;;;;;;;14.53;68.94;101033.63;4877585;29;20033;-92
2021/11/17 02:34:23;;;;;;;9.50;1.80;;;;;;;14.50;69.06;101031.25;4864265;29;20056;-93
2021/11/17 02:37:21;;;;;;;10.13;2.00;;;;;;;14.56;69.10;101035.22;4861849;29;20052;-94
2021/11/17 02:39:52;;;;;;;18.35;2.22;;;;;;;14.50;69.87;101033.88;4862157;29;20029;-93
2021/11/17 02:42:37;;;;;;;11.23;2.20;;;;;;;14.61;69.65;101033.97;4877433;29;20463;-93
2021/11/17 02:45:24;;;;;;;6.40;1.48;;;;;;;14.66;69.26;101036.25;4877478;29;20040;-93
2021/11/17 02:48:22;;;;;;;13.73;2.75;;;;;;;14.62;69.42;101040.09;4862132;29;20033;-95
2021/11/17 02:51:05;;;;;;;6.75;1.63;;;;;;;14.52;69.25;101052.28;4856952;29;20480;-95
2021/11/17 02:54:05;;;;;;;8.57;2.05;;;;;;;14.50;69.00;101031.25;4876479;29;20029;-94
2021/11/17 02:56:50;;;;;;;8.77;2.10;;;;;;;14.40;69.17;101035.53;4858415;29;20034;-94
2021/11/17 02:59:15;;;;;;;8.27;1.85;;;;;;;14.44;68.95;101042.25;4831076;29;20488;-94
2021/11/17 03:01:52;;;;;;;6.70;1.60;;;;;;;14.41;68.88;101038.03;4858787;29;20037;-94
2021/11/17 03:04:27;;;;;;;14.75;2.70;;;;;;;14.13;70.17;101035.75;4873884;29;20358;-94
2021/11/17 03:07:40;;;;;;;11.35;1.92;;;;;;;14.33;69.24;101040.41;4858895;29;20485;-93
2021/11/17 03:10:31;;;;;;;14.32;2.40;;;;;;;14.30;69.29;101053.84;4787797;29;20042;-93
2021/11/17 03:13:24;;;;;;;11.70;2.22;;;;;;;14.33;68.87;101050.13;4788032;29;20030;-94
2021/11/17 03:16:23;;;;;;;7.60;2.15;;;;;;;14.37;68.95;101056.88;4850089;29;20502;-93
2021/11/17 03:19:10;;;;;;;7.07;1.90;;;;;;;14.29;68.30;101063.56;4861798;29;20029;-94
2021/11/17 03:21:57;;;;;;;11.32;2.15;;;;;;;14.18;68.22;101063.50;4862323;29;20021;-92
2021/11/17 03:24:27;;;;;;;8.80;2.00;;;;;;;14.07;68.52;101066.06;4862509;29;20053;-93
2021/11/17 03:26:59;;;;;;;8.20;2.17;;;;;;;14.04;68.28;101066.28;4862355;29;20042;-94
2021/11/17 03:29:40;;;;;;;9.23;1.85;;;;;;;13.98;68.14;101069.38;4877930;29;20026;-93
2021/11/17 03:32:24;;;;;;;8.10;1.80;;;;;;;13.90;67.79;101069.91;4862118;29;20497;-92
2021/11/17 03:35:08;;;;;;;9.27;2.10;;;;;;;13.78;67.57;101065.50;4862116;29;20605;-94
2021/11/17 03:37:55;;;;;;;5.28;1.70;;;;;;;13.67;68.02;101068.94;4862212;29;20033;-94
2021/11/17 03:40:42;;;;;;;3.95;1.55;;;;;;;13.61;68.47;101069.34;4862083;29;20037;-93
2021/11/17 03:43:14;;;;;;;9.00;1.73;;;;;;;13.47;67.52;101072.97;4861943;29;20508;-93
2021/11/17 03:45:54;;;;;;;7.75;1.63;;;;;;;13.45;67.14;101065.16;4861887;29;20037;-93
2021/11/17 03:48:29;;;;;;;6.03;1.60;;;;;;;13.35;66.81;101079.06;4862032;29;20115;-93
2021/11/17 03:51:03;;;;;;;4.80;1.80;;;;;;;13.24;67.05;101085.06;4861748;29;20063;-93
2021/11/17 03:53:38;;;;;;;7.80;2.40;;;;;;;13.14;68.28;101089.28;4862002;29;20041;-94
2021/11/17 03:56:22;;;;;;;7.90;2.70;;;;;;;13.21;68.59;101091.41;4861739;29;20214;-94
2021/11/17 03:59:11;;;;;;;9.63;2.30;;;;;;;13.24;68.50;101088.53;4877454;29;20033;-93
2021/11/17 04:01:39;;;;;;;11.15;2.22;;;;;;;13.37;68.54;101091.22;4861530;29;20030;-94
2021/11/17 04:04:53;;;;;;;13.98;2.78;;;;;;;13.47;68.79;101097.53;4861214;29;20113;-93
2021/11/17 04:07:21;;;;;;;11.35;3.30;;;;;;;13.39;69.80;101097.22;4857716;29;20125;-93
2021/11/17 04:10:34;;;;;;;18.67;3.25;;;;;;;13.46;70.18;101095.84;4862581;29;20048;-93
2021/11/17 04:13:09;;;;;;;12.23;2.65;;;;;;;13.41;70.70;101094.50;4854986;29;20041;-93
2021/11/17 04:15:40;;;;;;;12.50;2.85;;;;;;;13.54;69.99;101090.03;4861417;29;20051;-93
2021/11/17 04:18:31;;;;;;;12.32;3.28;;;;;;;13.66;69.37;101096.25;4876603;29;20472;-93
2021/11/17 04:21:15;;;;;;;16.33;3.13;;;;;;;13.57;69.61;101102.19;4828370;29;20033;-93
2021/11/17 04:24:06;;;;;;;13.57;3.30;;;;;;;13.52;69.72;101091.09;4861147;29;20025;-94
2021/11/17 04:27:09;;;;;;;11.70;2.75;;;;;;;13.44;69.61;101105.66;4861273;29;20089;-94
2021/11/17 04:30:02;;;;;;;11.65;2.17;;;;;;;13.43;69.53;101103.16;4860902;29;20033;-93
2021/11/17 04:32:28;;;;;;;11.43;2.15;;;;;;;13.39;69.77;101109.56;4861003;29;20059;-95
2021/11/17 04:35:12;;;;;;;10.50;2.72;;;;;;;13.42;69.49;101112.84;4861318;29;20552;-93
2021/11/17 04:37:52;;;;;;;17.05;3.00;;;;;;;13.39;69.21;101113.06;4861146;29;20030;-94
2021/11/17 04:40:43;;;;;;;12.13;2.17;;;;;;;13.39;68.72;101123.59;4861302;29;20484;-93
2021/11/17 04:43:24;;;;;;;9.65;3.33;;;;;;;13.34;69.10;101127.50;4860755;29;20037;-94
2021/11/17 04:46:08;;;;;;;12.80;2.55;;;;;;;13.35;68.46;101127.41;4861059;29;20543;-96
2021/11/17 04:48:58;;;;;;;11.15;2.75;;;;;;;13.35;68.70;101127.41;4861047;29;20117;-93
2021/11/17 04:51:58;;;;;;;10.13;3.30;;;;;;;13.30;68.73;101134.78;4876161;29;20087;-96
2021/11/17 04:54:39;;;;;;;9.85;2.67;;;;;;;13.42;68.38;101147.13;4860584;29;20025;-94
2021/11/17 04:57:19;;;;;;;11.60;2.83;;;;;;;13.31;68.82;101146.16;4860642;29;20039;-94
2021/11/17 04:59:54;;;;;;;12.05;3.08;;;;;;;13.26;69.05;101139.38;4860503;29;20441;-94
2021/11/17 05:02:54;;;;;;;10.85;3.10;;;;;;;13.24;68.95;101145.72;4860499;29;20093;-94
2021/11/17 05:05:40;;;;;;;10.18;2.72;;;;;;;13.30;68.54;101150.59;4860606;29;20125;-96
2021/11/17 05:08:27;;;;;;;10.45;2.65;;;;;;;13.25;68.90;101157.94;4860569;29;20029;-96
2021/11/17 05:11:19;;;;;;;12.43;2.35;;;;;;;13.22;68.59;101153.72;4860482;29;20081;-96
2021/11/17 05:14:21;;;;;;;13.98;2.75;;;;;;;13.29;68.50;101148.91;4827644;29;20093;-96
2021/11/17 05:17:05;;;;;;;10.80;2.80;;;;;;;13.13;68.82;101148.22;4860562;29;20057;-96
2021/11/17 05:19:49;;;;;;;13.60;2.78;;;;;;;13.08;68.76;101149.38;4860349;29;20082;-93
2021/11/17 05:22:33;;;;;;;13.40;3.85;;;;;;;13.06;68.87;101138.09;4860163;29;20033;-93
2021/11/17 05:25:21;;;;;;;12.02;3.40;;;;;;;13.23;68.16;101138.72;4860296;29;20056;-96
2021/11/17 05:27:50;;;;;;;14.07;3.30;;;;;;;13.17;67.92;101155.84;4860493;29;20032;-92
2021/11/17 05:30:24;;;;;;;13.77;2.10;;;;;;;13.20;68.34;101163.53;4860092;29;20120;-94
2021/11/17 05:33:02;;;;;;;7.20;1.63;;;;;;;13.20;68.46;101165.31;4886233;29;20048;-93
2021/11/17 05:35:30;;;;;;;12.10;2.70;;;;;;;13.20;68.34;101178.50;4859855;29;20429;-91
2021/11/17 05:38:32;;;;;;;14.50;2.50;;;;;;;13.25;67.93;101190.44;4867650;29;20029;-93
2021/11/17 05:41:13;;;;;;;23.02;3.85;;;;;;;13.22;67.75;101192.44;4862279;29;20041;-92
2021/11/17 05:44:19;;;;;;;13.93;2.40;;;;;;;13.18;67.66;101198.88;4878087;29;20037;-92
2021/11/17 05:47:03;;;;;;;16.75;2.75;;;;;;;13.39;66.90;101201.88;4824999;29;20030;-93
2021/11/17 05:49:43;;;;;;;17.17;2.83;;;;;;;13.37;66.62;101204.63;4888599;29;20111;-95
2021/11/17 05:52:42;;;;;;;9.20;2.20;;;;;;;13.42;65.87;101207.78;4879473;29;20036;-94
2021/11/17 05:55:22;;;;;;;14.45;2.90;;;;;;;13.37;65.61;101206.41;4891395;29;20472;-94
2021/11/17 05:58:03;;;;;;;10.32;2.28;;;;;;;13.27;65.34;101207.00;4909283;29;20048;-94
2021/11/17 06:00:50;;;;;;;18.80;2.33;;;;;;;13.27;65.45;101196.47;4903761;29;20056;-93
2021/11/17 06:03:35;;;;;;;10.57;2.20;;;;;;;13.28;65.60;101206.06;4862532;29;20044;-93
2021/11/17 06:06:00;;;;;;;12.52;2.38;;;;;;;13.22;64.97;101210.91;4862600;29;20128;-93
2021/11/17 06:08:25;;;;;;;18.07;2.80;;;;;;;13.24;64.99;101214.28;4878165;29;20120;-96
2021/11/17 06:10:58;;;;;;;16.53;2.30;;;;;;;13.22;64.89;101201.19;4877999;29;20288;-96
2021/11/17 06:13:24;;;;;;;12.23;2.00;;;;;;;13.19;64.76;101205.81;4878241;29;20771;-95
2021/11/17 06:15:50;;;;;;;19.48;2.60;;;;;;;13.10;64.84;101202.84;4878137;29;20036;-95
2021/11/17 06:18:20;;;;;;;9.95;2.20;;;;;;;13.16;64.83;101219.22;4878048;29;20033;-94
2021/11/17 06:20:47;;;;;;;13.98;2.22;;;;;;;13.05;64.97;101220.78;4877935;29;20041;-94
2021/11/17 06:23:26;;;;;;;7.55;1.88;;;;;;;13.09;64.56;101219.63;4877719;29;20023;-94
2021/11/17 06:25:53;;;;;;;16.67;3.10;;;;;;;13.08;64.55;101220.56;4877773;29;20385;-93
2021/11/17 06:28:23;;;;;;;13.35;2.72;;;;;;;12.95;64.88;101229.38;4908743;29;20025;-92
2021/11/17 06:30:51;;;;;;;17.15;2.90;;;;;;;12.85;65.27;101222.03;4908365;29;20029;-93
2021/11/17 06:33:17;;;;;;;17.83;3.13;;;;;;;12.95;65.36;101222.28;4877424;29;20031;-93
2021/11/17 06:35:42;;;;;;;21.45;3.85;;;;;;;12.93;64.99;101232.09;4877601;29;20025;-93
2021/11/17 06:38:09;;;;;;;21.23;2.90;;;;;;;12.89;65.35;101241.16;4877726;29;20123;-92
2021/11/17 06:40:38;;;;;;;18.65;3.17;;;;;;;12.93;65.10;101245.28;4877579;29;20029;-93
2021/11/17 06:43:04;;;;;;;20.88;3.13;;;;;;;12.93;65.17;101260.25;4893171;29;20037;-93
2021/11/17 06:45:53;;;;;;;21.25;3.95;;;;;;;12.92;65.16;101264.69;4893305;29;20036;-93
2021/11/17 06:48:21;;;;;;;19.08;3.40;;;;;;;13.04;64.64;101266.53;4877536;29;20121;-94
2021/11/17 06:50:48;;;;;;;16.38;2.20;;;;;;;13.12;64.14;101271.31;4877380;29;20044;-96
2021/11/17 06:53:13;;;;;;;20.15;3.55;;;;;;;13.13;64.10;101275.66;4892901;29;20025;-96
2021/11/17 06:55:39;;;;;;;17.58;2.63;;;;;;;13.06;64.31;101275.19;4893079;29;20515;-96
2021/11/17 06:58:05;;;;;;;13.98;2.85;;;;;;;13.06;64.00;101264.63;4893059;29;20029;-94
2021/11/17 07:00:34;;;;;;;12.93;2.00;;;;;;;13.06;64.08;101264.63;4877575;29;20084;-96
2021/11/17 07:03:00;;;;;;;15.88;2.70;;;;;;;12.98;63.56;101269.56;4892825;29;20032;-94
2021/11/17 07:05:26;;;;;;;20.42;3.17;;;;;;;12.88;63.99;101281.63;4877339;29;20037;-93
2021/11/17 07:07:54;;;;;;;16.52;2.72;;;;;;;12.84;64.17;101280.16;4878517;29;20025;-96
2021/11/17 07:10:22;;;;;;;11.50;2.22;;;;;;;12.80;63.74;101283.91;4883724;29;20037;-96
2021/11/17 07:12:48;;;;;;;17.90;3.10;;;;;;;12.73;64.36;101279.97;4881617;29;20508;-93
2021/11/17 07:15:15;;;;;;;15.75;3.03;;;;;;;12.70;64.04;101294.19;4908736;29;20037;-93
2021/11/17 07:17:41;;;;;;;17.48;2.47;;;;;;;12.68;64.35;101290.81;4877746;29;20491;-94
2021/11/17 07:20:18;;;;;;;15.15;2.40;;;;;;;12.73;63.96;101290.50;4886090;29;20085;-96
2021/11/17 07:22:44;;;;;;;18.45;2.90;;;;;;;12.68;63.81;101304.81;4881310;29;20041;-96
2021/11/17 07:25:13;;;;;;;12.05;2.40;;;;;;;12.68;63.84;101311.88;4882453;29;20101;-96
2021/11/17 07:27:39;;;;;;;12.18;2.10;;;;;;;12.69;64.31;101311.75;4884218;29;20118;-95
2021/11/17 07:30:08;;;;;;;19.60;2.75;;;;;;;12.66;63.98;101319.03;4878902;29;20120;-96
2021/11/17 07:32:33;;;;;;;13.80;2.30;;;;;;;12.80;63.50;101336.63;4865771;29;20476;-96
2021/11/17 07:34:59;;;;;;;16.67;3.20;;;;;;;12.79;63.57;101334.91;4880933;29;20040;-96
2021/11/17 07:37:25;;;;;;;23.73;3.67;;;;;;;12.84;63.65;101336.34;4884274;29;20021;-93
2021/11/17 07:39:51;;;;;;;17.75;2.92;;;;;;;12.80;63.58;101334.84;4897325;29;20032;-96
2021/11/17 07:42:16;;;;;;;20.70;3.15;;;;;;;12.76;63.61;101346.50;4895958;29;20029;-96
2021/11/17 07:44:43;;;;;;;17.83;3.17;;;;;;;12.81;63.32;101348.84;4896676;29;20025;-95
2021/11/17 07:47:09;;;;;;;16.38;2.42;;;;;;;12.88;63.00;101352.81;4896147;29;20065;-92
2021/11/17 07:49:35;;;;;;;21.45;2.95;;;;;;;12.90;63.11;101362.28;4879517;29;20067;-94
2021/11/17 07:52:00;;;;;;;13.05;2.33;;;;;;;12.95;63.29;101359.38;4879505;29;20499;-96
2021/11/17 07:54:27;;;;;;;10.30;2.10;;;;;;;12.94;63.05;101362.97;4960278;23;20072;-95
2021/11/17 07:56:53;;;;;;;11.88;2.38;;;;;;;12.94;63.17;101357.69;4859204;29;20109;-94
2021/11/17 07:59:22;;;;;;;16.65;3.10;;;;;;;12.93;63.16;101360.41;4861063;29;20033;-96
2021/11/17 08:01:49;;;;;;;12.18;2.83;;;;;;;12.93;62.99;101361.25;4864078;29;20038;-96
2021/11/17 08:04:17;;;;;;;9.13;2.05;;;;;;;12.90;63.01;101364.94;4862775;29;20057;-95
2021/11/17 08:06:44;;;;;;;12.05;2.33;;;;;;;12.80;63.01;101370.88;4867629;29;20026;-96
2021/11/17 08:09:11;;;;;;;14.65;2.28;;;;;;;12.82;63.53;101383.03;4865265;29;20041;-96
2021/11/17 08:11:39;;;;;;;12.45;2.38;;;;;;;12.97;63.26;101390.91;4862897;29;20060;-94
2021/11/17 08:14:05;;;;;;;12.40;2.58;;;;;;;12.99;63.24;101386.38;4864061;29;20117;-96
2021/11/17 08:16:30;;;;;;;8.98;2.35;;;;;;;13.00;63.04;101388.94;4865554;29;20084;-96
2021/11/17 08:18:56;;;;;;;16.63;2.47;;;;;;;13.05;62.97;101380.72;4862555;29;20037;-96
2021/11/17 08:21:21;;;;;;;15.30;2.78;;;;;;;12.96;63.93;101382.16;4871112;29;20077;-96
2021/11/17 08:23:47;;;;;;;11.55;3.03;;;;;;;13.04;63.42;101393.06;4865075;29;20512;-96
2021/11/17 08:26:15;;;;;;;14.13;2.72;;;;;;;13.06;63.76;101396.47;4860767;29;20062;-96
2021/11/17 08:31:17;;;;;;;14.70;3.65;;;;;;;13.19;64.01;101406.22;4933279;23;20045;-94
2021/11/17 08:33:44;;;;;;;20.15;3.20;;;;;;;13.34;64.05;101401.81;4866766;29;20029;-96
2021/11/17 08:36:10;;;;;;;15.43;3.17;;;;;;;13.46;63.50;101411.56;4860094;29;20695;-94
2021/11/17 08:38:36;;;;;;;11.68;2.90;;;;;;;13.59;63.46;101409.00;4860529;29;20405;-95
2021/11/17 08:41:05;;;;;;;13.93;2.85;;;;;;;13.66;63.78;101410.28;4860932;29;20041;-91
2021/11/17 08:46:06;;;;;;;11.25;3.05;;;;;;;13.75;63.39;101408.88;5075421;23;20525;-93
2021/11/17 08:48:34;;;;;;;12.57;2.97;;;;;;;13.81;63.08;101421.66;4851839;29;20026;-91
2021/11/17 08:51:01;;;;;;;14.20;3.20;;;;;;;13.79;62.53;101418.28;4858708;29;20057;-91
2021/11/17 08:53:31;;;;;;;11.80;2.75;;;;;;;13.80;62.49;101422.59;4864259;29;20437;-90
2021/11/17 08:55:57;;;;;;;9.63;2.33;;;;;;;13.87;62.76;101429.16;4863469;29;20026;-90
2021/11/17 08:58:23;;;;;;;11.40;3.15;;;;;;;13.93;62.76;101443.75;4874996;29;20065;-90
2021/11/17 09:00:49;;;;;;;14.55;3.70;;;;;;;13.92;62.67;101449.97;4866087;29;20037;-91
2021/11/17 09:03:15;;;;;;;17.90;2.85;;;;;;;13.84;62.72;101446.06;4863545;29;20058;-93
2021/11/17 09:05:47;;;;;;;19.05;2.63;;;;;;;13.81;61.85;101456.81;4862495;29;20022;-93
2021/11/17 09:08:14;;;;;;;15.23;3.13;;;;;;;13.90;62.04;101458.00;4863812;29;20037;-94
2021/11/17 09:10:43;;;;;;;10.02;3.15;;;;;;;13.92;62.05;101447.34;4863747;29;20393;-95
2021/11/17 09:13:09;;;;;;;20.30;4.55;;;;;;;14.01;61.81;101441.47;4863607;29;20030;-95
2021/11/17 09:15:39;;;;;;;13.80;3.97;;;;;;;13.99;62.20;101443.34;4860792;29;20018;-96
2021/11/17 09:18:06;;;;;;;21.88;3.97;;;;;;;13.98;61.90;101453.09;4861521;29;20058;-95
2021/11/17 09:20:33;;;;;;;15.60;3.22;;;;;;;13.96;61.62;101454.97;4861850;29;20170;-95
2021/11/17 09:22:59;;;;;;;16.25;4.05;;;;;;;13.71;62.11;101461.00;4863710;29;20384;-93
2021/11/17 09:25:26;;;;;;;20.30;3.65;;;;;;;13.96;61.98;101459.38;4863125;29;20025;-92
2021/11/17 09:27:53;;;;;;;15.07;3.85;;;;;;;13.97;62.16;101463.75;4859181;29;20108;-93
2021/11/17 09:30:22;;;;;;;18.20;3.42;;;;;;;13.82;62.48;101453.25;4860846;29;20464;-94
2021/11/17 09:32:52;;;;;;;18.35;4.47;;;;;;;14.14;62.49;101457.31;4860798;29;20041;-96
2021/11/17 09:35:19;;;;;;;28.13;4.93;;;;;;;14.25;62.15;101458.31;4861389;29;20037;-96
2021/11/17 09:37:46;;;;;;;27.40;4.15;;;;;;;14.21;62.07;101454.19;4860351;29;20026;-96
2021/11/17 09:40:15;;;;;;;22.95;4.03;;;;;;;14.62;60.67;101444.47;4861227;29;20112;-96
2021/11/17 09:42:41;;;;;;;21.02;7.72;;;;;;;14.72;60.79;101457.91;4864383;29;20033;-95
2021/11/17 09:45:09;;;;;;;20.60;5.15;;;;;;;14.83;60.77;101469.41;4861542;29;20025;-96
2021/11/17 09:47:37;;;;;;;19.70;5.32;;;;;;;15.00;60.62;101467.41;4856675;29;20099;-95
2021/11/17 09:50:05;;;;;;;25.90;5.80;;;;;;;15.15;59.85;101466.31;4861555;29;20033;-95
2021/11/17 09:52:37;;;;;;;26.27;6.18;;;;;;;15.83;60.20;101478.22;4851674;29;20040;-95
2021/11/17 09:55:22;;;;;;;21.08;3.88;;;;;;;16.46;58.43;101470.91;4861230;29;20085;-96
2021/11/17 09:57:52;;;;;;;20.25;4.55;;;;;;;17.34;56.33;101477.41;4861295;29;20045;-96
2021/11/17 10:00:36;;;;;;;27.23;5.90;;;;;;;17.69;54.49;101471.06;4860566;29;20026;-95
2021/11/17 10:03:31;;;;;;;17.63;4.60;;;;;;;17.96;53.03;101483.09;4860772;29;20068;-95
2021/11/17 10:06:23;;;;;;;17.75;4.35;;;;;;;18.11;53.95;101491.63;4855249;29;20044;-96
2021/11/17 10:14:36;;;;;;;25.40;4.72;;;;;;;17.74;53.42;101500.75;4861039;29;20497;-95
2021/11/17 10:17:02;;;;;;;22.38;3.90;;;;;;;17.54;53.67;101498.88;4861170;29;20092;-95
2021/11/17 10:19:33;;;;;;;16.70;3.80;;;;;;;17.49;53.97;101506.34;4859565;29;20045;-95
2021/11/17 10:22:03;;;;;;;24.58;5.85;;;;;;;17.48;54.16;101515.31;4860527;29;20034;-95
2021/11/17 10:24:51;;;;;;;26.98;8.77;;;;;;;17.36;54.81;101517.97;4860342;29;20029;-96
2021/11/17 10:27:24;;;;;;;29.40;8.75;;;;;;;17.17;54.88;101523.84;4861060;29;20029;-95
2021/11/17 10:29:57;;;;;;;30.75;10.05;;;;;;;17.24;54.43;101513.63;4860352;29;20116;-95
2021/11/17 10:32:32;;;;;;;19.92;4.82;;;;;;;17.17;54.71;101512.41;4860100;29;20120;-96
2021/11/17 10:35:25;;;;;;;26.80;4.88;;;;;;;16.93;54.71;101513.34;4860063;29;20097;-96
2021/11/17 10:38:02;;;;;;;26.35;5.55;;;;;;;16.98;54.78;101519.16;4841810;29;20045;-96
2021/11/17 10:40:31;;;;;;;20.50;5.05;;;;;;;16.85;55.88;101523.72;4856931;29;20064;-96
2021/11/17 10:43:05;;;;;;;23.02;5.13;;;;;;;16.72;55.68;101522.91;4860509;29;20025;-95
2021/11/17 10:45:44;;;;;;;17.70;5.53;;;;;;;16.68;55.79;101530.25;4872310;29;20048;-96
2021/11/17 10:48:26;;;;;;;20.10;5.75;;;;;;;16.59;55.86;101529.16;4878632;29;20032;-95
2021/11/17 10:51:08;;;;;;;28.20;4.57;;;;;;;16.28;56.05;101527.13;4878790;29;20033;-96
2021/11/17 10:53:34;;;;;;;29.63;4.50;;;;;;;16.23;56.43;101530.94;4878664;29;20033;-96
2021/11/17 10:56:04;;;;;;;29.50;5.55;;;;;;;16.35;56.90;101547.75;4878613;29;20040;-95
2021/11/17 10:58:35;;;;;;;25.88;4.97;;;;;;;15.93;57.23;101541.97;4878433;29;20476;-96
2021/11/17 11:01:14;;;;;;;33.40;5.05;;;;;;;16.08;56.75;101545.31;4877947;29;20549;-96
2021/11/17 11:03:44;;;;;;;21.15;3.97;;;;;;;16.08;56.80;101550.63;4878343;29;20040;-95
2021/11/17 11:06:38;;;;;;;26.98;5.07;;;;;;;16.39;56.07;101543.91;4879327;29;20085;-96
2021/11/17 11:09:29;;;;;;;23.00;4.88;;;;;;;16.38;55.78;101544.03;4878416;29;20032;-95
2021/11/17 11:11:56;;;;;;;21.65;5.32;;;;;;;16.54;56.10;101539.25;4880315;29;20101;-96
2021/11/17 11:14:28;;;;;;;31.30;6.80;;;;;;;16.68;55.63;101535.56;4876927;29;20108;-96
2021/11/17 11:17:19;;;;;;;30.92;7.82;;;;;;;16.47;56.44;101535.38;4878361;29;20033;-96
2021/11/17 11:19:44;;;;;;;26.90;5.30;;;;;;;16.41;56.15;101536.69;4846630;29;20026;-96
2021/11/17 11:22:15;;;;;;;24.15;4.93;;;;;;;16.56;55.92;101528.53;4868591;29;20120;-96
2021/11/17 11:24:52;;;;;;;24.93;5.43;;;;;;;16.56;55.74;101518.78;4878337;29;20468;-95
2021/11/17 11:27:33;;;;;;;22.63;5.22;;;;;;;16.61;55.70;101516.63;4870384;29;20112;-95
2021/11/17 11:30:06;;;;;;;24.48;4.18;;;;;;;16.53;55.63;101526.97;4878210;29;20072;-95
2021/11/17 11:32:31;;;;;;;24.75;4.50;;;;;;;16.71;55.43;101521.25;4862825;29;20060;-95
2021/11/17 11:34:59;;;;;;;33.45;6.40;;;;;;;16.58;55.38;101521.31;4872207;29;20021;-96
2021/11/17 11:37:24;;;;;;;23.25;4.82;;;;;;;16.72;55.65;101513.13;4878198;29;20029;-92
2021/11/17 11:39:55;;;;;;;19.80;4.40;;;;;;;17.26;55.13;101517.00;4886207;29;20065;-96
2021/11/17 11:42:26;;;;;;;25.45;4.75;;;;;;;18.01;53.49;101507.50;4877139;29;20392;-95
2021/11/17 11:45:08;;;;;;;30.75;4.22;;;;;;;18.44;52.69;101506.56;4861343;29;20093;-94
2021/11/17 11:47:40;;;;;;;22.50;5.07;;;;;;;18.81;50.83;101498.19;4880468;29;20112;-95
2021/11/17 11:50:37;;;;;;;30.60;6.75;;;;;;;18.97;50.52;101498.53;4880727;29;20056;-95
2021/11/17 11:53:14;;;;;;;26.23;5.10;;;;;;;18.91;49.87;101509.72;4864216;29;20065;-95
2021/11/17 11:55:52;;;;;;;27.02;5.28;;;;;;;19.20;49.37;101504.53;4862184;29;20029;-94
2021/11/17 11:58:20;;;;;;;27.15;5.47;;;;;;;19.48;49.09;101499.44;4872964;29;20026;-95
2021/11/17 12:00:59;;;;;;;23.70;4.38;;;;;;;19.11;48.88;101496.50;4858631;29;20030;-96
2021/11/17 12:03:27;;;;;;;23.73;6.53;;;;;;;19.05;48.75;101497.03;4871364;29;20033;-96
2021/11/17 12:06:06;;;;;;;22.30;4.43;;;;;;;18.98;48.83;101492.25;4864979;29;20025;-96
2021/11/17 12:08:42;;;;;;;27.17;4.65;;;;;;;18.68;49.63;101500.16;4863396;29;20017;-96
2021/11/17 12:11:12;;;;;;;34.15;12.40;;;;;;;18.65;50.35;101492.47;4863452;29;20040;-96
2021/11/17 12:13:44;;;;;;;28.52;5.78;;;;;;;18.58;49.86;101494.78;4865369;29;20037;-94
2021/11/17 12:16:16;;;;;;;27.85;5.65;;;;;;;18.32;49.91;101495.16;4863156;29;20029;-95
2021/11/17 12:18:55;;;;;;;24.45;4.68;;;;;;;18.60;49.82;101499.00;4865017;29;20040;-96
2021/11/17 12:21:55;;;;;;;25.40;4.72;;;;;;;18.21;50.29;101504.03;4875650;29;20037;-96
2021/11/17 12:24:39;;;;;;;24.20;6.55;;;;;;;18.30;50.64;101512.22;4846270;29;20094;-95
2021/11/17 12:27:10;;;;;;;24.25;7.30;;;;;;;18.09;51.26;101509.50;4871965;29;20041;-94
2021/11/17 12:29:50;;;;;;;36.42;7.47;;;;;;;18.20;51.26;101515.63;4858156;29;20029;-95
2021/11/17 12:32:53;;;;;;;23.70;6.07;;;;;;;18.05;51.28;101508.94;4864127;29;20034;-96
2021/11/17 12:35:36;;;;;;;30.02;7.68;;;;;;;18.13;51.62;101506.47;4844205;29;20034;-95
2021/11/17 12:38:05;;;;;;;30.40;6.45;;;;;;;18.30;50.19;101514.88;4860151;29;20022;-95
2021/11/17 12:40:48;;;;;;;28.90;5.07;;;;;;;17.91;51.91;101512.72;4861425;29;20039;-94
2021/11/17 12:43:34;;;;;;;22.80;4.80;;;;;;;18.14;50.75;101504.66;4864133;29;20033;-93
2021/11/17 12:46:14;;;;;;;27.67;6.18;;;;;;;17.75;51.73;101490.97;4864146;29;20146;-93
2021/11/17 12:48:46;;;;;;;29.00;6.63;;;;;;;18.06;51.72;101493.81;4881052;29;20025;-92
2021/11/17 12:51:23;;;;;;;36.55;7.70;;;;;;;18.40;50.93;101491.84;4868899;29;20049;-94
2021/11/17 12:54:19;;;;;;;20.52;5.40;;;;;;;18.78;50.47;101493.09;4852056;29;20391;-94
2021/11/17 12:56:52;;;;;;;26.75;5.75;;;;;;;18.71;50.06;101494.59;4860810;29;20046;-95
2021/11/17 12:59:39;;;;;;;27.90;6.32;;;;;;;18.75;49.59;101496.00;4860180;29;20500;-95
2021/11/17 13:02:27;;;;;;;27.27;6.75;;;;;;;18.79;48.85;101506.28;4856326;29;20034;-96
2021/11/17 13:07:43;;;;;;;32.85;5.28;;;;;;;19.00;48.87;101510.75;4894375;23;20058;-97
2021/11/17 13:10:09;;;;;;;26.80;5.15;;;;;;;19.19;48.43;101512.66;5021442;23;20057;-96
2021/11/17 13:12:38;;;;;;;23.63;4.75;;;;;;;19.29;47.81;101516.19;4868120;29;20038;-94
2021/11/17 13:15:03;;;;;;;22.52;4.28;;;;;;;19.20;47.23;101517.84;4861278;29;20037;-93
2021/11/17 13:17:45;;;;;;;17.75;3.92;;;;;;;19.07;47.78;101514.56;4860820;29;20040;-90
2021/11/17 13:20:13;;;;;;;21.40;4.20;;;;;;;18.81;48.91;101511.47;4860636;29;20037;-93
2021/11/17 13:23:05;;;;;;;19.17;4.20;;;;;;;18.70;49.40;101519.50;4861272;29;20105;-94
2021/11/17 13:25:56;;;;;;;21.60;4.60;;;;;;;18.72;48.90;101510.44;4839183;29;20072;-94
2021/11/17 13:28:42;;;;;;;22.55;4.50;;;;;;;18.85;48.76;101512.91;4869875;29;20445;-94
2021/11/17 13:31:26;;;;;;;20.27;4.80;;;;;;;18.32;49.88;101510.25;4865119;29;20045;-93
2021/11/17 13:33:55;;;;;;;21.15;4.38;;;;;;;18.28;49.51;101512.31;4850388;29;20029;-92
2021/11/17 13:36:35;;;;;;;22.88;3.88;;;;;;;18.42;49.88;101505.84;4860647;29;20021;-87
2021/11/17 13:39:01;;;;;;;17.73;3.67;;;;;;;18.28;50.07;101492.88;4862356;29;20416;-90
2021/11/17 13:41:27;;;;;;;21.45;4.82;;;;;;;18.08;50.45;101487.41;4860219;29;20468;-92
2021/11/17 13:43:52;;;;;;;20.15;3.90;;;;;;;18.14;49.76;101480.75;4859777;29;20040;-91
2021/11/17 13:46:20;;;;;;;22.75;4.32;;;;;;;18.02;50.40;101480.78;4858548;29;20040;-92
2021/11/17 13:48:48;;;;;;;21.45;4.50;;;;;;;17.49;50.78;101485.13;4860692;29;20030;-92
2021/11/17 13:51:19;;;;;;;20.17;3.90;;;;;;;17.55;50.88;101481.97;4858013;29;20037;-91
2021/11/17 13:53:45;;;;;;;24.45;4.13;;;;;;;17.35;51.58;101479.09;4858123;29;20036;-93
2021/11/17 13:56:16;;;;;;;26.90;4.10;;;;;;;17.37;50.99;101476.31;4860738;29;20065;-92
2021/11/17 13:58:42;;;;;;;18.10;3.90;;;;;;;17.30;51.82;101481.28;4859508;29;20120;-95
2021/11/17 14:01:09;;;;;;;20.85;3.95;;;;;;;17.21;52.92;101489.97;4860189;29;20461;-92
2021/11/17 14:03:36;;;;;;;22.98;5.18;;;;;;;17.29;52.37;101495.50;4859859;29;20082;-92
2021/11/17 14:06:05;;;;;;;18.58;4.22;;;;;;;17.31;52.51;101479.47;4859133;29;20626;-93
2021/11/17 14:08:32;;;;;;;17.85;4.25;;;;;;;17.20;52.55;101480.28;4860987;29;20030;-94
2021/11/17 14:10:59;;;;;;;16.67;3.42;;;;;;;17.31;52.39;101474.16;4860485;29;20515;-91
2021/11/17 14:13:25;;;;;;;22.45;3.90;;;;;;;17.15;53.15;101479.84;4858106;29;20516;-90
2021/11/17 14:15:51;;;;;;;20.60;5.10;;;;;;;17.00;53.09;101472.13;4860357;29;20483;-90
2021/11/17 14:18:17;;;;;;;21.15;4.60;;;;;;;17.03;52.72;101482.47;4862317;29;20033;-90
2021/11/17 14:20:45;;;;;;;20.23;3.67;;;;;;;16.81;53.34;101501.00;4862816;29;20487;-92
2021/11/17 14:23:11;;;;;;;27.13;4.90;;;;;;;16.91;52.89;101501.16;4863187;29;20092;-92
2021/11/17 14:25:37;;;;;;;22.63;3.95;;;;;;;16.89;53.21;101509.25;4861165;29;20049;-90
2021/11/17 14:28:12;;;;;;;20.70;3.80;;;;;;;16.90;52.57;101495.00;4858039;29;20029;-92
2021/11/17 14:30:44;;;;;;;24.63;4.28;;;;;;;16.81;52.21;101509.81;4858575;29;20457;-92
2021/11/17 14:33:14;;;;;;;16.45;5.00;;;;;;;16.61;52.33;101500.72;4862770;29;20324;-93
2021/11/17 14:35:39;;;;;;;19.52;3.38;;;;;;;16.67;52.42;101507.38;4861436;29;20129;-91